sensor_id;sensor_type;location;lat;lon;timestamp;pressure;altitude;pressure_sealevel;temperature;humidity
11329;BME280;5719;42.714;23.732;2023-02-17T00:02:24;95326.06;;;2.16;67.89
11329;BME280;5719;42.714;23.732;2023-02-17T00:04:53;95321.91;;;2.12;67.92
11329;BME280;5719;42.714;23.732;2023-02-17T00:07:20;95322.75;;;2.12;68.04
11329;BME280;5719;42.714;23.732;2023-02-17T00:09:46;95314.34;;;2.09;68.39
11329;BME280;5719;42.714;23.732;2023-02-17T00:12:13;95323.84;;;2.04;67.75
11329;BME280;5719;42.714;23.732;2023-02-17T00:14:40;95326.41;;;2.02;68.52
11329;BME280;5719;42.714;23.732;2023-02-17T00:17:07;95328.13;;;2.02;68.84
11329;BME280;5719;42.714;23.732;2023-02-17T00:19:34;95326.41;;;2.02;68.64
11329;BME280;5719;42.714;23.732;2023-02-17T00:22:02;95318.00;;;1.98;68.25
11329;BME280;5719;42.714;23.732;2023-02-17T00:24:30;95330.03;;;1.93;68.09
11329;BME280;5719;42.714;23.732;2023-02-17T00:26:57;95321.69;;;1.87;67.16
11329;BME280;5719;42.714;23.732;2023-02-17T00:29:24;95320.94;;;1.83;67.16
11329;BME280;5719;42.714;23.732;2023-02-17T00:31:52;95317.72;;;1.77;67.91
11329;BME280;5719;42.714;23.732;2023-02-17T00:34:19;95314.47;;;1.70;66.97
11329;BME280;5719;42.714;23.732;2023-02-17T00:36:46;95316.22;;;1.68;68.07
11329;BME280;5719;42.714;23.732;2023-02-17T00:39:16;95301.09;;;1.62;68.49
11329;BME280;5719;42.714;23.732;2023-02-17T00:41:43;95307.88;;;1.62;67.70
11329;BME280;5719;42.714;23.732;2023-02-17T00:44:14;95307.94;;;1.60;68.98
11329;BME280;5719;42.714;23.732;2023-02-17T00:46:43;95306.34;;;1.56;68.18
11329;BME280;5719;42.714;23.732;2023-02-17T00:49:14;95295.31;;;1.56;68.77
11329;BME280;5719;42.714;23.732;2023-02-17T00:51:41;95304.63;;;1.57;70.09
11329;BME280;5719;42.714;23.732;2023-02-17T00:54:08;95292.00;;;1.52;69.79
11329;BME280;5719;42.714;23.732;2023-02-17T00:56:37;95296.34;;;1.47;69.63
11329;BME280;5719;42.714;23.732;2023-02-17T00:59:04;95284.56;;;1.43;68.57
11329;BME280;5719;42.714;23.732;2023-02-17T01:01:32;95289.00;;;1.35;68.86
11329;BME280;5719;42.714;23.732;2023-02-17T01:03:59;95283.97;;;1.32;68.31
11329;BME280;5719;42.714;23.732;2023-02-17T01:06:29;95282.88;;;1.07;68.95
11329;BME280;5719;42.714;23.732;2023-02-17T01:08:56;95281.91;;;1.12;70.05
11329;BME280;5719;42.714;23.732;2023-02-17T01:11:24;95292.03;;;1.14;69.60
11329;BME280;5719;42.714;23.732;2023-02-17T01:13:54;95284.44;;;1.12;69.03
11329;BME280;5719;42.714;23.732;2023-02-17T01:16:23;95290.47;;;1.08;68.82
11329;BME280;5719;42.714;23.732;2023-02-17T01:18:50;95283.78;;;1.04;68.04
11329;BME280;5719;42.714;23.732;2023-02-17T01:21:18;95279.59;;;1.02;69.34
11329;BME280;5719;42.714;23.732;2023-02-17T01:23:45;95277.09;;;0.98;68.05
11329;BME280;5719;42.714;23.732;2023-02-17T01:26:14;95272.91;;;0.97;67.80
11329;BME280;5719;42.714;23.732;2023-02-17T01:28:42;95275.53;;;0.94;68.89
11329;BME280;5719;42.714;23.732;2023-02-17T01:31:10;95273.91;;;0.90;68.12
11329;BME280;5719;42.714;23.732;2023-02-17T01:33:38;95268.91;;;0.87;67.80
11329;BME280;5719;42.714;23.732;2023-02-17T01:36:09;95276.56;;;0.84;68.23
11329;BME280;5719;42.714;23.732;2023-02-17T01:38:37;95275.72;;;0.84;69.33
11329;BME280;5719;42.714;23.732;2023-02-17T01:41:05;95281.72;;;0.81;68.88
11329;BME280;5719;42.714;23.732;2023-02-17T01:43:33;95275.97;;;0.73;70.53
11329;BME280;5719;42.714;23.732;2023-02-17T01:46:00;95275.09;;;0.74;70.22
11329;BME280;5719;42.714;23.732;2023-02-17T01:48:32;95275.19;;;0.70;70.96
11329;BME280;5719;42.714;23.732;2023-02-17T01:51:03;95277.97;;;0.59;69.80
11329;BME280;5719;42.714;23.732;2023-02-17T01:53:35;95291.56;;;0.58;69.77
11329;BME280;5719;42.714;23.732;2023-02-17T01:56:04;95288.19;;;0.58;70.71
11329;BME280;5719;42.714;23.732;2023-02-17T01:58:31;95286.53;;;0.55;71.12
11329;BME280;5719;42.714;23.732;2023-02-17T02:01:00;95282.28;;;0.56;70.87
11329;BME280;5719;42.714;23.732;2023-02-17T02:03:31;95286.72;;;0.46;71.08
11329;BME280;5719;42.714;23.732;2023-02-17T02:06:03;95292.59;;;0.49;70.98
11329;BME280;5719;42.714;23.732;2023-02-17T02:08:38;95268.94;;;0.46;70.80
11329;BME280;5719;42.714;23.732;2023-02-17T02:11:08;95278.19;;;0.48;71.28
11329;BME280;5719;42.714;23.732;2023-02-17T02:13:35;95279.00;;;0.51;71.17
11329;BME280;5719;42.714;23.732;2023-02-17T02:16:10;95277.34;;;0.48;71.57
11329;BME280;5719;42.714;23.732;2023-02-17T02:18:48;95281.66;;;0.46;70.80
11329;BME280;5719;42.714;23.732;2023-02-17T02:21:58;95275.06;;;0.36;72.19
11329;BME280;5719;42.714;23.732;2023-02-17T02:24:40;95278.69;;;0.23;71.44
11329;BME280;5719;42.714;23.732;2023-02-17T02:27:31;95271.91;;;0.23;71.35
11329;BME280;5719;42.714;23.732;2023-02-17T02:33:15;95265.25;;;0.18;71.57
11329;BME280;5719;42.714;23.732;2023-02-17T02:35:51;95277.19;;;-0.82;77.61
11329;BME280;5719;42.714;23.732;2023-02-17T02:38:25;95273.13;;;-0.94;79.54
11329;BME280;5719;42.714;23.732;2023-02-17T02:40:57;95260.06;;;-0.70;78.63
11329;BME280;5719;42.714;23.732;2023-02-17T02:43:28;95265.22;;;-0.74;77.23
11329;BME280;5719;42.714;23.732;2023-02-17T02:45:55;95265.50;;;-0.92;81.14
11329;BME280;5719;42.714;23.732;2023-02-17T02:48:24;95263.03;;;-0.97;84.36
11329;BME280;5719;42.714;23.732;2023-02-17T02:51:04;95239.47;;;-1.05;86.17
11329;BME280;5719;42.714;23.732;2023-02-17T02:54:06;95258.91;;;-1.03;89.43
11329;BME280;5719;42.714;23.732;2023-02-17T02:56:49;95263.59;;;-0.80;88.99
11329;BME280;5719;42.714;23.732;2023-02-17T02:59:25;95266.66;;;-0.60;86.17
11329;BME280;5719;42.714;23.732;2023-02-17T03:02:02;95254.56;;;-0.47;85.05
11329;BME280;5719;42.714;23.732;2023-02-17T03:04:36;95255.22;;;-0.34;84.05
11329;BME280;5719;42.714;23.732;2023-02-17T03:07:09;95252.53;;;-0.27;82.88
11329;BME280;5719;42.714;23.732;2023-02-17T03:09:37;95256.84;;;-0.32;81.35
11329;BME280;5719;42.714;23.732;2023-02-17T03:12:05;95256.91;;;-0.35;81.32
11329;BME280;5719;42.714;23.732;2023-02-17T03:14:36;95244.16;;;-0.30;80.56
11329;BME280;5719;42.714;23.732;2023-02-17T03:17:03;95257.75;;;-0.33;79.49
11329;BME280;5719;42.714;23.732;2023-02-17T03:19:31;95263.56;;;-0.26;78.93
11329;BME280;5719;42.714;23.732;2023-02-17T03:22:04;95265.25;;;-0.28;77.51
11329;BME280;5719;42.714;23.732;2023-02-17T03:24:33;95262.00;;;-0.36;77.63
11329;BME280;5719;42.714;23.732;2023-02-17T03:27:00;95264.78;;;-0.50;78.55
11329;BME280;5719;42.714;23.732;2023-02-17T03:29:27;95269.00;;;-0.47;79.38
11329;BME280;5719;42.714;23.732;2023-02-17T03:31:54;95261.28;;;-0.43;79.31
11329;BME280;5719;42.714;23.732;2023-02-17T03:34:21;95265.03;;;-0.65;91.19
11329;BME280;5719;42.714;23.732;2023-02-17T03:36:48;95266.78;;;-0.67;94.91
11329;BME280;5719;42.714;23.732;2023-02-17T03:39:16;95261.78;;;-0.72;96.04
11329;BME280;5719;42.714;23.732;2023-02-17T03:41:43;95275.88;;;-0.54;92.37
11329;BME280;5719;42.714;23.732;2023-02-17T03:44:10;95263.28;;;-0.60;88.63
11329;BME280;5719;42.714;23.732;2023-02-17T03:46:38;95254.88;;;-0.62;87.81
11329;BME280;5719;42.714;23.732;2023-02-17T03:49:05;95261.66;;;-0.64;89.98
11329;BME280;5719;42.714;23.732;2023-02-17T03:51:32;95260.59;;;-0.51;92.02
11329;BME280;5719;42.714;23.732;2023-02-17T03:53:59;95258.38;;;-0.71;92.46
11329;BME280;5719;42.714;23.732;2023-02-17T03:56:27;95264.19;;;-0.63;90.63
11329;BME280;5719;42.714;23.732;2023-02-17T03:58:54;95262.50;;;-0.64;89.76
11329;BME280;5719;42.714;23.732;2023-02-17T04:01:21;95264.53;;;-0.85;93.83
11329;BME280;5719;42.714;23.732;2023-02-17T04:03:49;95266.09;;;-0.77;95.75
11329;BME280;5719;42.714;23.732;2023-02-17T04:06:16;95263.28;;;-0.60;95.46
11329;BME280;5719;42.714;23.732;2023-02-17T04:08:43;95262.97;;;-0.42;93.62
11329;BME280;5719;42.714;23.732;2023-02-17T04:11:10;95254.25;;;-0.29;93.36
11329;BME280;5719;42.714;23.732;2023-02-17T04:13:38;95260.03;;;-0.19;91.93
11329;BME280;5719;42.714;23.732;2023-02-17T04:16:07;95256.50;;;-0.12;90.49
11329;BME280;5719;42.714;23.732;2023-02-17T04:18:35;95249.59;;;-0.06;89.19
11329;BME280;5719;42.714;23.732;2023-02-17T04:21:02;95250.25;;;0.06;87.64
11329;BME280;5719;42.714;23.732;2023-02-17T04:23:30;95251.16;;;0.03;87.08
11329;BME280;5719;42.714;23.732;2023-02-17T04:25:56;95255.69;;;-0.14;87.16
11329;BME280;5719;42.714;23.732;2023-02-17T04:28:23;95253.25;;;-0.69;94.04
11329;BME280;5719;42.714;23.732;2023-02-17T04:30:52;95257.16;;;-1.01;100.00
11329;BME280;5719;42.714;23.732;2023-02-17T04:33:19;95256.31;;;-1.01;100.00
11329;BME280;5719;42.714;23.732;2023-02-17T04:35:46;95255.25;;;-1.44;100.00
11329;BME280;5719;42.714;23.732;2023-02-17T04:38:13;95260.97;;;-1.96;100.00
11329;BME280;5719;42.714;23.732;2023-02-17T04:40:40;95268.72;;;-2.11;100.00
11329;BME280;5719;42.714;23.732;2023-02-17T04:43:07;95261.97;;;-2.09;100.00
11329;BME280;5719;42.714;23.732;2023-02-17T04:45:35;95263.38;;;-1.84;100.00
11329;BME280;5719;42.714;23.732;2023-02-17T04:48:03;95270.41;;;-1.41;100.00
11329;BME280;5719;42.714;23.732;2023-02-17T04:50:30;95268.56;;;-1.29;99.78
11329;BME280;5719;42.714;23.732;2023-02-17T04:52:57;95266.50;;;-1.04;96.54
11329;BME280;5719;42.714;23.732;2023-02-17T04:55:24;95270.41;;;-0.83;96.27
11329;BME280;5719;42.714;23.732;2023-02-17T04:57:51;95265.03;;;-0.62;94.25
11329;BME280;5719;42.714;23.732;2023-02-17T05:00:18;95270.72;;;-0.50;91.18
11329;BME280;5719;42.714;23.732;2023-02-17T05:02:45;95272.47;;;-0.52;91.76
11329;BME280;5719;42.714;23.732;2023-02-17T05:05:13;95277.72;;;-0.62;92.13
11329;BME280;5719;42.714;23.732;2023-02-17T05:07:43;95276.03;;;-0.63;92.41
11329;BME280;5719;42.714;23.732;2023-02-17T05:10:11;95278.56;;;-0.63;92.31
11329;BME280;5719;42.714;23.732;2023-02-17T05:12:38;95286.03;;;-0.54;92.11
11329;BME280;5719;42.714;23.732;2023-02-17T05:15:06;95290.06;;;-0.42;91.12
11329;BME280;5719;42.714;23.732;2023-02-17T05:17:34;95288.25;;;-0.36;89.93
11329;BME280;5719;42.714;23.732;2023-02-17T05:20:01;95288.31;;;-0.39;89.38
11329;BME280;5719;42.714;23.732;2023-02-17T05:22:30;95297.97;;;-0.59;88.38
11329;BME280;5719;42.714;23.732;2023-02-17T05:24:57;95295.50;;;-0.64;89.28
11329;BME280;5719;42.714;23.732;2023-02-17T05:27:24;95284.59;;;-1.27;92.79
11329;BME280;5719;42.714;23.732;2023-02-17T05:29:51;95293.88;;;-1.27;94.42
11329;BME280;5719;42.714;23.732;2023-02-17T05:32:18;95301.28;;;-1.78;100.00
11329;BME280;5719;42.714;23.732;2023-02-17T05:34:45;95291.06;;;-1.69;100.00
11329;BME280;5719;42.714;23.732;2023-02-17T05:37:11;95295.50;;;-1.87;100.00
11329;BME280;5719;42.714;23.732;2023-02-17T05:39:40;95298.75;;;-1.76;100.00
11329;BME280;5719;42.714;23.732;2023-02-17T05:42:06;95299.16;;;-1.39;100.00
11329;BME280;5719;42.714;23.732;2023-02-17T05:44:33;95301.50;;;-1.27;100.00
11329;BME280;5719;42.714;23.732;2023-02-17T05:47:00;95300.22;;;-1.60;100.00
11329;BME280;5719;42.714;23.732;2023-02-17T05:49:27;95301.97;;;-1.62;100.00
11329;BME280;5719;42.714;23.732;2023-02-17T05:51:54;95308.34;;;-1.34;100.00
11329;BME280;5719;42.714;23.732;2023-02-17T05:54:21;95311.44;;;-1.12;100.00
11329;BME280;5719;42.714;23.732;2023-02-17T05:56:49;95309.69;;;-1.09;100.00
11329;BME280;5719;42.714;23.732;2023-02-17T05:59:16;95329.69;;;-0.87;100.00
11329;BME280;5719;42.714;23.732;2023-02-17T06:01:43;95325.97;;;-0.65;100.00
11329;BME280;5719;42.714;23.732;2023-02-17T06:04:10;95330.34;;;-0.73;100.00
11329;BME280;5719;42.714;23.732;2023-02-17T06:06:37;95336.91;;;-0.62;100.00
11329;BME280;5719;42.714;23.732;2023-02-17T06:09:04;95335.91;;;-0.50;100.00
11329;BME280;5719;42.714;23.732;2023-02-17T06:11:31;95335.66;;;-0.35;100.00
11329;BME280;5719;42.714;23.732;2023-02-17T06:13:59;95341.03;;;-0.03;99.71
11329;BME280;5719;42.714;23.732;2023-02-17T06:16:26;95341.41;;;0.24;97.22
11329;BME280;5719;42.714;23.732;2023-02-17T06:18:54;95335.00;;;0.47;95.14
11329;BME280;5719;42.714;23.732;2023-02-17T06:21:20;95343.09;;;0.69;93.92
11329;BME280;5719;42.714;23.732;2023-02-17T06:23:47;95352.69;;;0.95;93.01
11329;BME280;5719;42.714;23.732;2023-02-17T06:26:14;95339.94;;;1.35;90.76
11329;BME280;5719;42.714;23.732;2023-02-17T06:28:42;95342.88;;;1.55;89.67
11329;BME280;5719;42.714;23.732;2023-02-17T06:31:11;95352.22;;;1.90;88.14
11329;BME280;5719;42.714;23.732;2023-02-17T06:33:38;95354.97;;;2.16;85.37
11329;BME280;5719;42.714;23.732;2023-02-17T06:36:05;95349.81;;;2.50;83.72
11329;BME280;5719;42.714;23.732;2023-02-17T06:38:33;95348.97;;;2.50;83.64
11329;BME280;5719;42.714;23.732;2023-02-17T06:40:59;95356.78;;;2.74;83.44
11329;BME280;5719;42.714;23.732;2023-02-17T06:43:27;95353.31;;;3.35;80.83
11329;BME280;5719;42.714;23.732;2023-02-17T06:45:53;95357.84;;;3.54;78.56
11329;BME280;5719;42.714;23.732;2023-02-17T06:48:22;95350.06;;;3.84;77.26
11329;BME280;5719;42.714;23.732;2023-02-17T06:50:49;95351.75;;;4.61;74.72
11329;BME280;5719;42.714;23.732;2023-02-17T06:53:16;95350.09;;;5.30;71.12
11329;BME280;5719;42.714;23.732;2023-02-17T06:55:43;95352.81;;;5.92;68.71
11329;BME280;5719;42.714;23.732;2023-02-17T06:58:10;95356.22;;;5.93;64.70
11329;BME280;5719;42.714;23.732;2023-02-17T07:00:37;95355.66;;;5.84;67.50
11329;BME280;5719;42.714;23.732;2023-02-17T07:03:04;95337.91;;;6.42;65.59
11329;BME280;5719;42.714;23.732;2023-02-17T07:05:33;95340.97;;;6.70;63.03
11329;BME280;5719;42.714;23.732;2023-02-17T07:08:00;95339.94;;;7.32;61.59
11329;BME280;5719;42.714;23.732;2023-02-17T07:10:27;95339.25;;;7.28;61.83
11329;BME280;5719;42.714;23.732;2023-02-17T07:12:54;95343.66;;;7.44;59.74
11329;BME280;5719;42.714;23.732;2023-02-17T07:15:21;95345.69;;;7.92;56.43
11329;BME280;5719;42.714;23.732;2023-02-17T07:17:48;95343.84;;;8.12;58.06
11329;BME280;5719;42.714;23.732;2023-02-17T07:20:15;95349.94;;;8.46;55.81
11329;BME280;5719;42.714;23.732;2023-02-17T07:22:43;95349.84;;;8.64;57.37
11329;BME280;5719;42.714;23.732;2023-02-17T07:25:10;95355.88;;;9.77;53.91
11329;BME280;5719;42.714;23.732;2023-02-17T07:27:37;95350.66;;;10.40;51.21
11329;BME280;5719;42.714;23.732;2023-02-17T07:30:05;95346.72;;;11.07;48.94
11329;BME280;5719;42.714;23.732;2023-02-17T07:32:33;95339.28;;;11.57;49.62
11329;BME280;5719;42.714;23.732;2023-02-17T07:35:00;95346.66;;;11.77;48.73
11329;BME280;5719;42.714;23.732;2023-02-17T07:37:27;95335.81;;;12.12;48.02
11329;BME280;5719;42.714;23.732;2023-02-17T07:39:55;95330.63;;;12.51;47.45
11329;BME280;5719;42.714;23.732;2023-02-17T07:42:22;95345.19;;;12.66;46.45
11329;BME280;5719;42.714;23.732;2023-02-17T07:44:50;95344.19;;;12.82;45.50
11329;BME280;5719;42.714;23.732;2023-02-17T07:47:16;95342.88;;;13.14;44.66
11329;BME280;5719;42.714;23.732;2023-02-17T07:49:43;95341.25;;;13.62;43.21
11329;BME280;5719;42.714;23.732;2023-02-17T07:52:10;95344.84;;;14.08;42.83
11329;BME280;5719;42.714;23.732;2023-02-17T07:54:37;95340.00;;;14.51;42.12
11329;BME280;5719;42.714;23.732;2023-02-17T07:57:05;95338.91;;;14.78;40.58
11329;BME280;5719;42.714;23.732;2023-02-17T07:59:32;95346.75;;;14.89;40.29
11329;BME280;5719;42.714;23.732;2023-02-17T08:01:59;95348.22;;;13.49;42.99
11329;BME280;5719;42.714;23.732;2023-02-17T08:04:26;95347.88;;;12.52;44.74
11329;BME280;5719;42.714;23.732;2023-02-17T08:06:53;95352.91;;;12.93;44.40
11329;BME280;5719;42.714;23.732;2023-02-17T08:09:20;95347.75;;;13.80;42.04
11329;BME280;5719;42.714;23.732;2023-02-17T08:12:07;95355.72;;;14.85;40.10
11329;BME280;5719;42.714;23.732;2023-02-17T08:14:56;95355.72;;;14.50;39.95
11329;BME280;5719;42.714;23.732;2023-02-17T08:17:23;95354.91;;;14.49;40.26
11329;BME280;5719;42.714;23.732;2023-02-17T08:19:50;95342.13;;;14.10;40.59
11329;BME280;5719;42.714;23.732;2023-02-17T08:22:16;95349.00;;;13.13;42.08
11329;BME280;5719;42.714;23.732;2023-02-17T08:24:44;95347.94;;;13.28;42.13
11329;BME280;5719;42.714;23.732;2023-02-17T08:27:13;95352.78;;;14.31;39.56
11329;BME280;5719;42.714;23.732;2023-02-17T08:29:40;95349.69;;;14.49;39.12
11329;BME280;5719;42.714;23.732;2023-02-17T08:32:07;95358.00;;;13.58;40.69
11329;BME280;5719;42.714;23.732;2023-02-17T08:34:34;95360.31;;;11.94;43.32
11329;BME280;5719;42.714;23.732;2023-02-17T08:37:02;95359.59;;;11.77;45.06
11329;BME280;5719;42.714;23.732;2023-02-17T08:39:29;95355.78;;;13.64;41.02
11329;BME280;5719;42.714;23.732;2023-02-17T08:41:57;95348.81;;;12.24;43.18
11329;BME280;5719;42.714;23.732;2023-02-17T08:44:25;95349.44;;;12.28;43.99
11329;BME280;5719;42.714;23.732;2023-02-17T08:46:52;95354.41;;;13.10;43.25
11329;BME280;5719;42.714;23.732;2023-02-17T08:49:21;95342.56;;;14.04;40.35
11329;BME280;5719;42.714;23.732;2023-02-17T08:51:49;95350.72;;;12.74;43.81
11329;BME280;5719;42.714;23.732;2023-02-17T08:54:17;95350.72;;;13.38;42.03
11329;BME280;5719;42.714;23.732;2023-02-17T08:56:44;95347.41;;;13.23;41.43
11329;BME280;5719;42.714;23.732;2023-02-17T08:59:13;95335.84;;;13.52;42.08
11329;BME280;5719;42.714;23.732;2023-02-17T09:01:42;95334.00;;;12.91;42.83
11329;BME280;5719;42.714;23.732;2023-02-17T09:04:12;95329.44;;;12.30;43.88
11329;BME280;5719;42.714;23.732;2023-02-17T09:06:41;95332.44;;;11.42;45.49
11329;BME280;5719;42.714;23.732;2023-02-17T09:09:11;95325.53;;;11.69;45.27
11329;BME280;5719;42.714;23.732;2023-02-17T09:11:38;95336.34;;;11.35;45.65
11329;BME280;5719;42.714;23.732;2023-02-17T09:14:06;95328.22;;;11.13;46.95
11329;BME280;5719;42.714;23.732;2023-02-17T09:16:33;95326.38;;;11.70;46.96
11329;BME280;5719;42.714;23.732;2023-02-17T09:19:01;95303.38;;;13.34;42.76
11329;BME280;5719;42.714;23.732;2023-02-17T09:21:28;95312.81;;;13.35;43.22
11329;BME280;5719;42.714;23.732;2023-02-17T09:23:55;95306.88;;;14.42;40.59
11329;BME280;5719;42.714;23.732;2023-02-17T09:26:22;95310.25;;;14.78;40.70
11329;BME280;5719;42.714;23.732;2023-02-17T09:28:49;95314.31;;;14.82;40.02
11329;BME280;5719;42.714;23.732;2023-02-17T09:31:18;95316.22;;;13.48;42.40
11329;BME280;5719;42.714;23.732;2023-02-17T09:33:46;95310.03;;;14.22;41.09
11329;BME280;5719;42.714;23.732;2023-02-17T09:36:17;95308.34;;;13.73;41.27
11329;BME280;5719;42.714;23.732;2023-02-17T09:38:45;95306.31;;;14.61;41.06
11329;BME280;5719;42.714;23.732;2023-02-17T09:41:17;95306.34;;;14.37;41.08
11329;BME280;5719;42.714;23.732;2023-02-17T09:43:45;95297.88;;;15.14;39.68
11329;BME280;5719;42.714;23.732;2023-02-17T09:46:17;95303.47;;;15.65;38.67
11329;BME280;5719;42.714;23.732;2023-02-17T09:48:47;95300.28;;;14.60;40.71
11329;BME280;5719;42.714;23.732;2023-02-17T09:51:21;95302.59;;;14.41;40.68
11329;BME280;5719;42.714;23.732;2023-02-17T09:53:55;95297.53;;;14.27;42.08
11329;BME280;5719;42.714;23.732;2023-02-17T09:56:30;95301.38;;;13.87;41.79
11329;BME280;5719;42.714;23.732;2023-02-17T09:59:00;95288.09;;;14.72;41.05
11329;BME280;5719;42.714;23.732;2023-02-17T10:01:31;95288.63;;;14.18;41.52
11329;BME280;5719;42.714;23.732;2023-02-17T10:04:03;95294.84;;;14.63;40.38
11329;BME280;5719;42.714;23.732;2023-02-17T10:06:35;95280.50;;;15.04;40.12
11329;BME280;5719;42.714;23.732;2023-02-17T10:09:06;95278.63;;;14.60;39.07
11329;BME280;5719;42.714;23.732;2023-02-17T10:11:38;95277.00;;;14.70;38.84
11329;BME280;5719;42.714;23.732;2023-02-17T10:14:12;95266.59;;;16.65;35.68
11329;BME280;5719;42.714;23.732;2023-02-17T10:16:47;95270.22;;;18.05;34.12
11329;BME280;5719;42.714;23.732;2023-02-17T10:19:19;95268.78;;;17.82;33.69
11329;BME280;5719;42.714;23.732;2023-02-17T10:21:56;95277.59;;;17.10;33.57
11329;BME280;5719;42.714;23.732;2023-02-17T10:24:24;95259.66;;;17.57;33.80
11329;BME280;5719;42.714;23.732;2023-02-17T10:27:10;95266.63;;;17.16;33.46
11329;BME280;5719;42.714;23.732;2023-02-17T10:29:49;95254.31;;;17.68;33.49
11329;BME280;5719;42.714;23.732;2023-02-17T10:32:21;95250.53;;;18.01;32.58
11329;BME280;5719;42.714;23.732;2023-02-17T10:35:01;95247.50;;;18.44;32.53
11329;BME280;5719;42.714;23.732;2023-02-17T10:37:42;95251.06;;;19.65;31.08
11329;BME280;5719;42.714;23.732;2023-02-17T10:40:18;95244.28;;;20.34;29.92
11329;BME280;5719;42.714;23.732;2023-02-17T10:42:47;95243.88;;;20.65;28.91
11329;BME280;5719;42.714;23.732;2023-02-17T10:45:22;95236.06;;;20.02;29.61
11329;BME280;5719;42.714;23.732;2023-02-17T10:47:56;95230.69;;;20.21;29.20
11329;BME280;5719;42.714;23.732;2023-02-17T10:50:24;95234.59;;;20.17;28.97
11329;BME280;5719;42.714;23.732;2023-02-17T10:52:54;95225.25;;;19.87;28.89
11329;BME280;5719;42.714;23.732;2023-02-17T10:55:28;95242.88;;;19.77;28.86
11329;BME280;5719;42.714;23.732;2023-02-17T10:58:04;95231.25;;;20.15;28.49
11329;BME280;5719;42.714;23.732;2023-02-17T11:00:32;95227.53;;;20.53;28.18
11329;BME280;5719;42.714;23.732;2023-02-17T11:02:59;95227.63;;;19.26;29.31
11329;BME280;5719;42.714;23.732;2023-02-17T11:05:29;95223.69;;;19.03;29.48
11329;BME280;5719;42.714;23.732;2023-02-17T11:08:00;95229.66;;;18.95;28.82
11329;BME280;5719;42.714;23.732;2023-02-17T11:10:30;95221.19;;;19.11;29.49
11329;BME280;5719;42.714;23.732;2023-02-17T11:12:58;95203.22;;;19.98;28.77
11329;BME280;5719;42.714;23.732;2023-02-17T11:15:29;95212.22;;;20.13;27.96
11329;BME280;5719;42.714;23.732;2023-02-17T11:17:59;95209.50;;;20.84;27.21
11329;BME280;5719;42.714;23.732;2023-02-17T11:20:30;95210.03;;;21.47;26.04
11329;BME280;5719;42.714;23.732;2023-02-17T11:23:06;95207.88;;;21.84;25.83
11329;BME280;5719;42.714;23.732;2023-02-17T11:25:55;95195.38;;;21.78;25.89
11329;BME280;5719;42.714;23.732;2023-02-17T11:28:23;95198.41;;;21.58;26.26
11329;BME280;5719;42.714;23.732;2023-02-17T11:30:51;95198.78;;;21.29;26.06
11329;BME280;5719;42.714;23.732;2023-02-17T11:33:21;95200.00;;;21.09;26.55
11329;BME280;5719;42.714;23.732;2023-02-17T11:35:50;95213.84;;;21.44;25.89
11329;BME280;5719;42.714;23.732;2023-02-17T11:38:21;95201.06;;;22.64;24.81
11329;BME280;5719;42.714;23.732;2023-02-17T11:40:56;95207.31;;;22.23;24.89
11329;BME280;5719;42.714;23.732;2023-02-17T11:43:23;95194.41;;;21.37;24.91
11329;BME280;5719;42.714;23.732;2023-02-17T11:46:02;95204.75;;;21.39;25.11
11329;BME280;5719;42.714;23.732;2023-02-17T11:48:52;95199.50;;;19.19;27.45
11329;BME280;5719;42.714;23.732;2023-02-17T11:51:27;95195.09;;;18.73;27.79
11329;BME280;5719;42.714;23.732;2023-02-17T11:54:08;95189.81;;;20.36;26.51
11329;BME280;5719;42.714;23.732;2023-02-17T11:56:46;95186.84;;;20.83;26.09
11329;BME280;5719;42.714;23.732;2023-02-17T11:59:29;95183.28;;;20.92;26.32
11329;BME280;5719;42.714;23.732;2023-02-17T12:02:16;95181.94;;;20.62;26.06
11329;BME280;5719;42.714;23.732;2023-02-17T12:04:53;95175.81;;;21.39;25.76
11329;BME280;5719;42.714;23.732;2023-02-17T12:07:57;95167.44;;;20.76;25.15
11329;BME280;5719;42.714;23.732;2023-02-17T12:10:40;95167.06;;;20.96;26.14
11329;BME280;5719;42.714;23.732;2023-02-17T12:13:26;95169.63;;;22.14;24.83
11329;BME280;5719;42.714;23.732;2023-02-17T12:16:11;95175.66;;;23.04;23.47
11329;BME280;5719;42.714;23.732;2023-02-17T12:18:49;95167.97;;;22.78;23.39
11329;BME280;5719;42.714;23.732;2023-02-17T12:21:30;95161.53;;;22.16;23.96
11329;BME280;5719;42.714;23.732;2023-02-17T12:24:11;95158.59;;;22.35;24.20
11329;BME280;5719;42.714;23.732;2023-02-17T12:26:46;95155.59;;;22.78;23.26
11329;BME280;5719;42.714;23.732;2023-02-17T12:29:29;95151.97;;;20.29;25.00
11329;BME280;5719;42.714;23.732;2023-02-17T12:32:12;95147.63;;;20.20;25.63
11329;BME280;5719;42.714;23.732;2023-02-17T12:34:43;95151.16;;;20.46;25.45
11329;BME280;5719;42.714;23.732;2023-02-17T12:37:17;95136.28;;;20.89;25.16
11329;BME280;5719;42.714;23.732;2023-02-17T12:39:48;95140.09;;;20.94;24.54
11329;BME280;5719;42.714;23.732;2023-02-17T12:42:21;95142.56;;;21.88;24.34
11329;BME280;5719;42.714;23.732;2023-02-17T12:44:52;95137.34;;;22.69;22.84
11329;BME280;5719;42.714;23.732;2023-02-17T12:47:27;95136.63;;;21.86;23.44
11329;BME280;5719;42.714;23.732;2023-02-17T12:50:02;95137.88;;;19.32;25.30
11329;BME280;5719;42.714;23.732;2023-02-17T12:52:29;95128.59;;;19.65;25.60
11329;BME280;5719;42.714;23.732;2023-02-17T12:55:02;95128.31;;;20.03;24.87
11329;BME280;5719;42.714;23.732;2023-02-17T12:57:36;95127.97;;;20.24;24.95
11329;BME280;5719;42.714;23.732;2023-02-17T13:00:14;95121.44;;;21.56;23.35
11329;BME280;5719;42.714;23.732;2023-02-17T13:02:43;95122.84;;;22.24;22.99
11329;BME280;5719;42.714;23.732;2023-02-17T13:05:19;95114.72;;;22.66;22.65
11329;BME280;5719;42.714;23.732;2023-02-17T13:07:50;95116.25;;;22.04;23.12
11329;BME280;5719;42.714;23.732;2023-02-17T13:10:33;95112.91;;;21.62;23.54
11329;BME280;5719;42.714;23.732;2023-02-17T13:13:04;95126.13;;;22.26;22.82
11329;BME280;5719;42.714;23.732;2023-02-17T13:15:37;95119.47;;;22.95;22.26
11329;BME280;5719;42.714;23.732;2023-02-17T13:18:06;95114.91;;;22.57;22.91
11329;BME280;5719;42.714;23.732;2023-02-17T13:20:52;95113.63;;;22.04;22.93
11329;BME280;5719;42.714;23.732;2023-02-17T13:23:33;95119.75;;;21.46;22.79